Time;durP1;ratioP1;P1;durP2;ratioP2;P2;SDS_P1;SDS_P2;PMS_P1;PMS_P2;Temp;Humidity;BMP_temperature;BMP_pressure;BME280_temperature;BME280_humidity;BME280_pressure;Samples;Min_cycle;Max_cycle;Signal;HPM_P1;HPM_P2
2021/01/23 00:01:53;;;;;;;17.20;11.03;;;;;;;;;;5032762;28;20646;-71
2021/01/23 00:04:57;;;;;;;14.23;9.50;;;;;;;;;;5032895;28;20967;-71
2021/01/23 00:08:02;;;;;;;13.00;9.90;;;;;;;;;;5033212;28;20540;-71
2021/01/23 00:11:06;;;;;;;14.87;9.87;;;;;;;;;;5033787;28;20623;-70
2021/01/23 00:14:10;;;;;;;14.63;10.77;;;;;;;;;;5033416;28;20540;-70
2021/01/23 00:17:14;;;;;;;13.87;9.40;;;;;;;;;;5032896;28;20973;-71
2021/01/23 00:20:18;;;;;;;15.57;10.57;;;;;;;;;;5021181;28;20543;-71
2021/01/23 00:23:22;;;;;;;15.70;9.57;;;;;;;;;;5009874;28;21173;-71
2021/01/23 00:26:27;;;;;;;17.23;10.40;;;;;;;;;;5032997;28;20552;-71
2021/01/23 00:29:31;;;;;;;14.23;9.40;;;;;;;;;;5032721;28;20540;-71
2021/01/23 00:32:35;;;;;;;13.07;9.87;;;;;;;;;;5032669;28;20611;-71
2021/01/23 00:35:39;;;;;;;15.63;9.93;;;;;;;;;;5033225;28;20540;-71
2021/01/23 00:38:44;;;;;;;12.83;9.27;;;;;;;;;;5032869;28;20880;-71
2021/01/23 00:41:48;;;;;;;16.70;10.33;;;;;;;;;;5032719;28;20619;-71
2021/01/23 00:44:52;;;;;;;16.13;10.07;;;;;;;;;;5031655;28;20610;-72
2021/01/23 00:47:57;;;;;;;14.43;10.50;;;;;;;;;;5032583;28;21187;-72
2021/01/23 00:51:01;;;;;;;11.33;8.93;;;;;;;;;;5023936;28;20623;-72
2021/01/23 00:54:05;;;;;;;13.23;9.87;;;;;;;;;;5024191;28;21070;-72
2021/01/23 00:57:09;;;;;;;14.30;10.33;;;;;;;;;;5035216;28;20556;-72
2021/01/23 01:00:14;;;;;;;12.77;9.33;;;;;;;;;;5024045;28;20552;-72
2021/01/23 01:03:20;;;;;;;11.63;7.73;;;;;;;;;;5013359;28;20595;-72
2021/01/23 01:06:35;;;;;;;11.10;7.93;;;;;;;;;;5035040;28;20548;-72
2021/01/23 01:09:39;;;;;;;12.03;8.23;;;;;;;;;;5036079;28;20540;-72
2021/01/23 01:12:44;;;;;;;11.17;8.03;;;;;;;;;;5035904;28;20959;-72
2021/01/23 01:15:48;;;;;;;13.03;9.07;;;;;;;;;;5023827;28;20548;-72
2021/01/23 01:18:52;;;;;;;12.20;9.50;;;;;;;;;;5036260;28;20804;-72
2021/01/23 01:21:57;;;;;;;12.37;8.40;;;;;;;;;;5034636;28;21189;-72
2021/01/23 01:25:02;;;;;;;14.70;9.50;;;;;;;;;;5034753;28;20536;-72
2021/01/23 01:28:06;;;;;;;17.50;9.83;;;;;;;;;;5035722;28;20595;-72
2021/01/23 01:31:11;;;;;;;12.90;9.43;;;;;;;;;;5035516;28;20626;-72
2021/01/23 01:34:15;;;;;;;15.70;9.43;;;;;;;;;;5035872;28;21078;-72
2021/01/23 01:37:19;;;;;;;14.97;11.00;;;;;;;;;;5035569;28;20548;-72
2021/01/23 01:40:23;;;;;;;15.23;10.23;;;;;;;;;;5035360;28;20555;-72
2021/01/23 01:43:27;;;;;;;16.47;9.50;;;;;;;;;;5023180;28;20604;-72
2021/01/23 01:46:33;;;;;;;13.43;9.53;;;;;;;;;;5023125;28;20559;-72
2021/01/23 01:49:37;;;;;;;14.17;9.37;;;;;;;;;;5035323;28;20540;-72
2021/01/23 01:52:43;;;;;;;14.10;10.17;;;;;;;;;;5034863;28;20622;-72
2021/01/23 01:55:47;;;;;;;16.43;10.43;;;;;;;;;;5034980;28;20556;-72
2021/01/23 01:58:51;;;;;;;17.10;11.33;;;;;;;;;;5035189;28;20549;-72
2021/01/23 02:02:08;;;;;;;15.50;10.70;;;;;;;;;;5033090;28;20636;-72
2021/01/23 02:05:29;;;;;;;14.60;10.50;;;;;;;;;;5000453;28;20545;-72
2021/01/23 02:08:51;;;;;;;14.63;10.97;;;;;;;;;;5034689;28;20579;-72
2021/01/23 02:12:10;;;;;;;14.03;10.43;;;;;;;;;;5034870;28;20623;-72
2021/01/23 02:15:22;;;;;;;15.83;10.57;;;;;;;;;;5034790;28;21061;-72
2021/01/23 02:18:33;;;;;;;14.43;10.10;;;;;;;;;;5034599;28;20599;-72
2021/01/23 02:22:10;;;;;;;14.27;11.17;;;;;;;;;;5034491;28;20623;-72
2021/01/23 02:25:17;;;;;;;14.30;10.40;;;;;;;;;;5022661;28;20552;-72
2021/01/23 02:28:28;;;;;;;16.93;11.20;;;;;;;;;;5034575;28;20546;-72
2021/01/23 02:31:41;;;;;;;14.63;10.83;;;;;;;;;;5033520;28;20619;-72
2021/01/23 02:34:47;;;;;;;13.23;9.57;;;;;;;;;;5011321;28;20540;-72
2021/01/23 02:37:52;;;;;;;12.50;9.50;;;;;;;;;;5034355;28;20544;-72
2021/01/23 02:41:34;;;;;;;9.73;6.70;;;;;;;;;;5021993;28;21205;-72
2021/01/23 02:44:38;;;;;;;6.20;5.13;;;;;;;;;;5034428;28;20591;-72
2021/01/23 02:47:42;;;;;;;4.60;3.90;;;;;;;;;;5034148;28;20540;-72
2021/01/23 02:50:46;;;;;;;4.03;3.40;;;;;;;;;;5033863;28;20619;-72
2021/01/23 02:53:56;;;;;;;3.00;2.70;;;;;;;;;;5034074;28;21066;-72
2021/01/23 02:57:05;;;;;;;3.00;2.20;;;;;;;;;;5021820;28;20919;-72
2021/01/23 03:00:11;;;;;;;2.53;2.33;;;;;;;;;;5033165;28;20544;-72
2021/01/23 03:03:17;;;;;;;2.43;2.13;;;;;;;;;;5033561;28;20649;-72
2021/01/23 03:06:22;;;;;;;2.00;1.80;;;;;;;;;;5033529;28;20595;-71
2021/01/23 03:09:26;;;;;;;2.60;1.90;;;;;;;;;;5034046;28;20552;-71
2021/01/23 03:12:30;;;;;;;2.10;1.90;;;;;;;;;;5032692;28;20615;-71
2021/01/23 03:15:35;;;;;;;2.13;1.67;;;;;;;;;;5033370;28;20547;-72
2021/01/23 03:18:40;;;;;;;1.70;1.50;;;;;;;;;;5032514;28;20606;-71
2021/01/23 03:21:47;;;;;;;1.60;1.50;;;;;;;;;;5033437;28;20622;-72
2021/01/23 03:24:51;;;;;;;1.87;1.67;;;;;;;;;;5033148;28;20639;-72
2021/01/23 03:27:57;;;;;;;1.67;1.53;;;;;;;;;;5032521;28;20552;-72
2021/01/23 03:31:01;;;;;;;1.27;1.17;;;;;;;;;;5033276;28;20631;-72
2021/01/23 03:34:06;;;;;;;1.77;1.47;;;;;;;;;;5032314;28;20599;-72
2021/01/23 03:37:10;;;;;;;2.00;1.53;;;;;;;;;;5033526;28;20548;-72
2021/01/23 03:40:15;;;;;;;1.87;1.63;;;;;;;;;;5033611;28;20543;-71
2021/01/23 03:43:19;;;;;;;1.80;1.50;;;;;;;;;;5032904;28;20607;-71
2021/01/23 03:46:23;;;;;;;1.43;1.33;;;;;;;;;;5033610;28;21077;-71
2021/01/23 03:49:27;;;;;;;1.90;1.60;;;;;;;;;;5033263;28;20587;-71
2021/01/23 03:52:31;;;;;;;1.80;1.60;;;;;;;;;;5033043;28;20619;-71
2021/01/23 03:55:36;;;;;;;1.50;1.40;;;;;;;;;;5033501;28;20542;-71
2021/01/23 03:58:40;;;;;;;1.20;1.10;;;;;;;;;;5033731;28;20556;-71
2021/01/23 04:01:45;;;;;;;1.20;1.10;;;;;;;;;;5010042;28;20627;-71
2021/01/23 04:04:49;;;;;;;1.73;1.30;;;;;;;;;;5033061;28;20587;-71
2021/01/23 04:07:53;;;;;;;1.40;1.07;;;;;;;;;;5020771;28;21102;-71
2021/01/23 04:10:58;;;;;;;1.30;1.20;;;;;;;;;;5033295;28;20618;-71
2021/01/23 04:14:02;;;;;;;1.13;1.03;;;;;;;;;;5032481;28;20544;-71
2021/01/23 04:17:42;;;;;;;1.00;0.90;;;;;;;;;;5032834;28;20619;-72
2021/01/23 04:20:46;;;;;;;1.20;1.00;;;;;;;;;;4995824;28;20644;-71
2021/01/23 04:23:50;;;;;;;0.93;0.90;;;;;;;;;;5001775;28;20588;-71
2021/01/23 04:26:55;;;;;;;0.90;0.90;;;;;;;;;;5016927;28;21106;-71
2021/01/23 04:29:59;;;;;;;0.90;0.90;;;;;;;;;;5016912;28;20537;-71
2021/01/23 04:33:03;;;;;;;0.97;0.97;;;;;;;;;;5016584;28;20596;-71
2021/01/23 04:36:08;;;;;;;1.23;1.00;;;;;;;;;;4997362;28;21099;-71
2021/01/23 04:39:12;;;;;;;1.93;1.07;;;;;;;;;;4996901;28;20558;-71
2021/01/23 04:42:17;;;;;;;1.10;1.00;;;;;;;;;;4996207;28;20624;-71
2021/01/23 04:45:20;;;;;;;1.10;1.00;;;;;;;;;;4996439;28;20538;-70
2021/01/23 04:48:25;;;;;;;1.07;1.00;;;;;;;;;;4997018;28;20550;-71
2021/01/23 04:51:29;;;;;;;0.90;0.80;;;;;;;;;;4985041;28;20624;-71
2021/01/23 04:54:34;;;;;;;1.37;0.80;;;;;;;;;;4997817;28;20580;-71
2021/01/23 04:57:43;;;;;;;1.30;0.90;;;;;;;;;;5016632;28;20552;-71
2021/01/23 05:00:47;;;;;;;0.70;0.70;;;;;;;;;;5004446;28;21201;-71
2021/01/23 05:04:00;;;;;;;0.60;0.60;;;;;;;;;;5003938;28;20972;-71
2021/01/23 05:07:04;;;;;;;0.70;0.70;;;;;;;;;;5015210;28;20556;-71
2021/01/23 05:10:26;;;;;;;0.70;0.70;;;;;;;;;;5016795;28;20579;-71
2021/01/23 05:13:30;;;;;;;0.80;0.60;;;;;;;;;;5003894;28;21095;-71
2021/01/23 05:16:35;;;;;;;0.70;0.70;;;;;;;;;;5015821;28;20542;-71
2021/01/23 05:19:40;;;;;;;0.80;0.67;;;;;;;;;;5004246;28;20603;-72
2021/01/23 05:22:48;;;;;;;0.70;0.60;;;;;;;;;;5015834;28;20620;-72
2021/01/23 05:25:58;;;;;;;0.60;0.60;;;;;;;;;;5004186;28;20533;-72
2021/01/23 05:29:07;;;;;;;0.83;0.83;;;;;;;;;;5015787;28;20596;-72
2021/01/23 05:32:16;;;;;;;1.10;1.00;;;;;;;;;;5015743;28;20628;-72
2021/01/23 05:35:20;;;;;;;1.10;1.00;;;;;;;;;;5014776;28;20541;-72
2021/01/23 05:38:26;;;;;;;1.20;1.10;;;;;;;;;;5015441;28;20600;-72
2021/01/23 05:41:30;;;;;;;1.10;1.00;;;;;;;;;;5014652;28;20968;-72
2021/01/23 05:44:34;;;;;;;2.23;1.10;;;;;;;;;;5015759;28;20920;-72
2021/01/23 05:47:39;;;;;;;1.10;0.93;;;;;;;;;;5016033;28;20549;-72
2021/01/23 05:50:43;;;;;;;1.13;1.03;;;;;;;;;;5015692;28;20624;-71
2021/01/23 05:53:48;;;;;;;1.03;0.93;;;;;;;;;;5015685;28;20537;-71
2021/01/23 05:56:54;;;;;;;1.20;1.10;;;;;;;;;;5015323;28;20537;-71
2021/01/23 06:00:00;;;;;;;1.10;1.00;;;;;;;;;;5003164;28;20584;-71
2021/01/23 06:03:05;;;;;;;1.20;1.10;;;;;;;;;;5014793;28;20545;-71
2021/01/23 06:06:12;;;;;;;1.20;1.10;;;;;;;;;;5014332;28;20936;-71
2021/01/23 06:09:39;;;;;;;3.13;1.03;;;;;;;;;;5015289;28;21072;-70
2021/01/23 06:12:43;;;;;;;1.00;1.00;;;;;;;;;;5014776;28;20652;-70
2021/01/23 06:15:48;;;;;;;1.20;1.10;;;;;;;;;;5015050;28;20541;-71
2021/01/23 06:18:52;;;;;;;1.50;1.27;;;;;;;;;;5014760;28;20608;-71
2021/01/23 06:21:56;;;;;;;1.23;1.13;;;;;;;;;;5014622;28;21201;-71
2021/01/23 06:25:00;;;;;;;1.50;1.40;;;;;;;;;;5014804;28;20596;-71
2021/01/23 06:28:04;;;;;;;2.07;1.63;;;;;;;;;;5014977;28;20556;-71
2021/01/23 06:31:29;;;;;;;1.70;1.60;;;;;;;;;;5014670;28;20640;-71
2021/01/23 06:34:34;;;;;;;1.70;1.60;;;;;;;;;;5014746;28;20545;-71
2021/01/23 06:37:38;;;;;;;1.60;1.50;;;;;;;;;;5014958;28;20549;-71
2021/01/23 06:40:42;;;;;;;1.77;1.57;;;;;;;;;;5014718;28;21191;-71
2021/01/23 06:44:11;;;;;;;5.00;1.73;;;;;;;;;;5014469;28;20552;-71
2021/01/23 06:47:15;;;;;;;2.30;1.90;;;;;;;;;;5014138;28;20537;-70
2021/01/23 06:50:39;;;;;;;2.53;1.90;;;;;;;;;;5014561;28;20557;-71
2021/01/23 06:53:43;;;;;;;2.07;1.90;;;;;;;;;;4991104;28;20916;-71
2021/01/23 06:56:49;;;;;;;2.20;2.00;;;;;;;;;;5014345;28;20544;-71
2021/01/23 06:59:53;;;;;;;2.20;2.00;;;;;;;;;;5014323;28;20557;-71
2021/01/23 07:03:06;;;;;;;2.83;2.23;;;;;;;;;;5002074;28;21158;-71
2021/01/23 07:06:10;;;;;;;2.60;2.40;;;;;;;;;;5014259;28;20601;-71
2021/01/23 07:09:14;;;;;;;3.07;2.50;;;;;;;;;;5013463;28;20537;-71
2021/01/23 07:12:46;;;;;;;2.63;2.30;;;;;;;;;;5013464;28;20623;-71
2021/01/23 07:15:50;;;;;;;2.77;2.47;;;;;;;;;;5013883;28;20908;-71
2021/01/23 07:18:57;;;;;;;2.83;2.20;;;;;;;;;;5015904;28;20612;-71
2021/01/23 07:22:02;;;;;;;10.60;6.30;;;;;;;;;;5013866;28;20620;-71
2021/01/23 07:25:12;;;;;;;2.73;2.43;;;;;;;;;;5013831;28;20596;-71
2021/01/23 07:28:19;;;;;;;3.30;2.50;;;;;;;;;;5013658;28;20596;-72
2021/01/23 07:31:31;;;;;;;3.13;2.83;;;;;;;;;;5013975;28;21193;-72
2021/01/23 07:34:36;;;;;;;2.10;1.90;;;;;;;;;;5001796;28;20537;-72
2021/01/23 07:37:46;;;;;;;19.73;8.87;;;;;;;;;;4990466;28;20553;-71
2021/01/23 07:40:54;;;;;;;6.03;3.40;;;;;;;;;;5013652;28;20623;-72
2021/01/23 07:44:00;;;;;;;5.07;2.93;;;;;;;;;;5012566;28;20550;-71
2021/01/23 07:47:04;;;;;;;3.57;2.23;;;;;;;;;;5013923;28;20541;-72
2021/01/23 07:50:14;;;;;;;3.63;2.90;;;;;;;;;;5001941;28;20928;-72
2021/01/23 07:53:22;;;;;;;4.23;3.57;;;;;;;;;;5013734;28;20545;-72
2021/01/23 07:56:25;;;;;;;5.40;4.90;;;;;;;;;;5001512;28;20534;-72
2021/01/23 07:59:50;;;;;;;2.77;2.57;;;;;;;;;;5015474;28;20545;-72
2021/01/23 08:02:54;;;;;;;3.40;2.60;;;;;;;;;;5017672;28;20544;-72
2021/01/23 08:05:58;;;;;;;2.63;2.43;;;;;;;;;;5017521;28;20604;-72
2021/01/23 08:09:16;;;;;;;4.87;3.47;;;;;;;;;;5016702;28;21091;-73
2021/01/23 08:12:21;;;;;;;4.50;4.10;;;;;;;;;;5004958;28;20628;-72
2021/01/23 08:15:29;;;;;;;4.77;4.30;;;;;;;;;;5017267;28;21078;-73
2021/01/23 08:18:33;;;;;;;3.77;3.23;;;;;;;;;;5004294;28;20604;-73
2021/01/23 08:21:37;;;;;;;5.37;4.80;;;;;;;;;;4992804;28;21189;-73
2021/01/23 08:24:41;;;;;;;3.77;3.43;;;;;;;;;;5003964;28;20596;-73
2021/01/23 08:27:48;;;;;;;3.60;3.30;;;;;;;;;;5015724;28;20553;-73
2021/01/23 08:30:52;;;;;;;9.10;6.87;;;;;;;;;;5015718;28;20632;-73
2021/01/23 08:33:57;;;;;;;5.10;4.60;;;;;;;;;;5015772;28;20549;-73
2021/01/23 08:37:02;;;;;;;6.07;5.47;;;;;;;;;;5015701;28;20545;-73
2021/01/23 08:40:07;;;;;;;4.00;3.60;;;;;;;;;;5015646;28;20540;-72
2021/01/23 08:43:12;;;;;;;4.17;3.77;;;;;;;;;;5015338;28;21150;-73
2021/01/23 08:46:16;;;;;;;3.83;3.27;;;;;;;;;;5003145;28;20600;-73
2021/01/23 08:49:20;;;;;;;4.77;3.50;;;;;;;;;;5015901;28;20544;-73
2021/01/23 08:52:24;;;;;;;3.90;3.40;;;;;;;;;;5015126;28;20619;-73
2021/01/23 08:55:28;;;;;;;5.07;3.73;;;;;;;;;;5015768;28;20540;-73
2021/01/23 08:58:33;;;;;;;3.50;3.20;;;;;;;;;;5015213;28;20604;-73
2021/01/23 09:01:37;;;;;;;3.80;3.37;;;;;;;;;;5003282;28;20623;-72
2021/01/23 09:04:41;;;;;;;5.03;3.57;;;;;;;;;;5015464;28;20613;-72
2021/01/23 09:07:45;;;;;;;6.70;4.33;;;;;;;;;;5015194;28;20604;-73
2021/01/23 09:10:49;;;;;;;6.27;3.77;;;;;;;;;;5014781;28;20623;-72
2021/01/23 09:13:56;;;;;;;5.17;4.47;;;;;;;;;;5015177;28;20552;-72
2021/01/23 09:17:00;;;;;;;5.60;4.70;;;;;;;;;;5015127;28;20541;-72
2021/01/23 09:19:59;;;;;;;6.97;5.77;;;;;;;;;;5111054;27;20736;-71
2021/01/23 09:23:03;;;;;;;4.93;4.47;;;;;;;;;;5090677;28;20561;-71
2021/01/23 09:26:08;;;;;;;5.63;3.97;;;;;;;;;;5091211;28;20533;-71
2021/01/23 09:29:12;;;;;;;7.17;4.70;;;;;;;;;;5090895;28;21064;-71
2021/01/23 09:32:18;;;;;;;6.10;5.00;;;;;;;;;;5090662;28;20620;-70
2021/01/23 09:35:22;;;;;;;9.43;6.10;;;;;;;;;;5090426;28;20541;-71
2021/01/23 09:38:27;;;;;;;13.97;9.50;;;;;;;;;;5089724;28;20589;-74
2021/01/23 09:41:31;;;;;;;39.10;14.60;;;;;;;;;;5090455;28;20616;-73
2021/01/23 09:44:35;;;;;;;41.37;11.60;;;;;;;;;;5078186;28;20537;-73
2021/01/23 09:47:39;;;;;;;55.07;14.20;;;;;;;;;;5078077;28;21082;-72
2021/01/23 09:50:43;;;;;;;71.63;20.23;;;;;;;;;;5090273;28;20621;-72
2021/01/23 09:53:47;;;;;;;62.33;17.10;;;;;;;;;;5090437;28;20869;-72
2021/01/23 09:56:52;;;;;;;28.57;12.90;;;;;;;;;;5090272;28;20564;-73
2021/01/23 09:59:56;;;;;;;11.23;7.40;;;;;;;;;;5089811;28;20645;-73
2021/01/23 10:03:00;;;;;;;29.03;16.00;;;;;;;;;;5090283;28;20545;-72
2021/01/23 10:06:04;;;;;;;15.07;8.50;;;;;;;;;;5090184;28;20545;-72
2021/01/23 10:09:08;;;;;;;16.77;10.03;;;;;;;;;;5089746;28;21150;-72
2021/01/23 10:12:13;;;;;;;51.13;23.60;;;;;;;;;;5089691;28;20620;-72
2021/01/23 10:15:17;;;;;;;31.33;15.33;;;;;;;;;;5089668;28;21079;-72
2021/01/23 10:18:21;;;;;;;18.67;10.67;;;;;;;;;;5089605;28;20652;-73
2021/01/23 10:21:26;;;;;;;21.17;13.60;;;;;;;;;;5089683;28;20960;-72
2021/01/23 10:24:30;;;;;;;6.67;5.23;;;;;;;;;;5089739;28;20538;-73
2021/01/23 10:27:34;;;;;;;6.43;4.90;;;;;;;;;;5077128;28;21106;-73
2021/01/23 10:30:39;;;;;;;3.73;3.37;;;;;;;;;;5090913;28;20534;-72
2021/01/23 10:33:43;;;;;;;4.83;3.77;;;;;;;;;;5075322;28;20534;-72
2021/01/23 10:36:47;;;;;;;5.43;4.60;;;;;;;;;;5075045;28;21095;-72
2021/01/23 10:39:51;;;;;;;5.73;4.30;;;;;;;;;;5075217;28;20598;-72
2021/01/23 10:42:55;;;;;;;6.97;5.37;;;;;;;;;;5075027;28;20553;-72
2021/01/23 10:46:00;;;;;;;8.57;6.27;;;;;;;;;;5076209;28;20542;-72
2021/01/23 10:49:05;;;;;;;7.10;5.07;;;;;;;;;;5076176;28;20533;-72
2021/01/23 10:52:09;;;;;;;6.20;4.47;;;;;;;;;;5074777;28;20980;-72
2021/01/23 10:55:14;;;;;;;5.57;3.97;;;;;;;;;;5076023;28;20541;-72
2021/01/23 10:58:18;;;;;;;10.83;7.37;;;;;;;;;;5074660;28;20554;-73
2021/01/23 11:01:22;;;;;;;6.77;5.10;;;;;;;;;;5074775;28;20632;-71
2021/01/23 11:04:26;;;;;;;4.83;3.67;;;;;;;;;;5075547;28;20183;-72
2021/01/23 11:07:31;;;;;;;6.27;4.13;;;;;;;;;;5075494;28;20550;-72
2021/01/23 11:10:36;;;;;;;13.37;7.67;;;;;;;;;;5075379;28;20171;-72
2021/01/23 11:13:40;;;;;;;17.13;9.17;;;;;;;;;;5075041;28;20659;-72
2021/01/23 11:16:44;;;;;;;3.93;3.37;;;;;;;;;;5075352;28;20199;-72
2021/01/23 11:19:48;;;;;;;7.90;5.90;;;;;;;;;;5075363;28;20223;-72
2021/01/23 11:22:52;;;;;;;6.80;5.17;;;;;;;;;;5075297;28;20183;-72
2021/01/23 11:25:57;;;;;;;8.67;6.20;;;;;;;;;;5074201;28;20626;-72
2021/01/23 11:29:01;;;;;;;9.43;6.50;;;;;;;;;;5074592;28;20171;-71
2021/01/23 11:32:05;;;;;;;9.83;6.00;;;;;;;;;;5064927;28;20285;-71
2021/01/23 11:35:10;;;;;;;17.77;9.67;;;;;;;;;;5062238;28;20187;-71
2021/01/23 11:38:14;;;;;;;19.33;8.67;;;;;;;;;;5073876;28;20975;-71
2021/01/23 11:41:18;;;;;;;9.83;5.50;;;;;;;;;;5073657;28;20642;-71
2021/01/23 11:44:22;;;;;;;4.37;3.80;;;;;;;;;;5082646;28;20581;-71
2021/01/23 11:47:27;;;;;;;4.00;3.27;;;;;;;;;;5073915;28;21150;-71
2021/01/23 11:50:31;;;;;;;3.60;3.30;;;;;;;;;;5074652;28;20538;-71
2021/01/23 11:53:35;;;;;;;5.63;3.33;;;;;;;;;;5073657;28;20613;-71
2021/01/23 11:56:39;;;;;;;6.53;2.70;;;;;;;;;;5080832;28;20529;-71
2021/01/23 11:59:43;;;;;;;3.97;3.20;;;;;;;;;;5087343;28;20207;-71
2021/01/23 12:02:47;;;;;;;3.07;2.60;;;;;;;;;;5073448;28;20176;-71
2021/01/23 12:05:52;;;;;;;4.03;2.50;;;;;;;;;;5074012;28;20176;-71
2021/01/23 12:08:56;;;;;;;5.37;2.70;;;;;;;;;;5057515;28;20199;-71
2021/01/23 12:12:00;;;;;;;2.70;2.47;;;;;;;;;;5073792;28;20215;-71
2021/01/23 12:15:05;;;;;;;3.30;2.73;;;;;;;;;;5074181;28;20191;-71
2021/01/23 12:18:09;;;;;;;2.80;2.50;;;;;;;;;;5073796;28;20215;-71
2021/01/23 12:21:13;;;;;;;3.13;2.23;;;;;;;;;;5054040;28;20212;-71
2021/01/23 12:24:18;;;;;;;3.83;2.37;;;;;;;;;;5062514;28;20191;-72
2021/01/23 12:27:22;;;;;;;2.83;2.30;;;;;;;;;;5073468;28;20195;-71
2021/01/23 12:30:26;;;;;;;2.70;2.20;;;;;;;;;;5061123;28;20187;-72
2021/01/23 12:33:30;;;;;;;3.17;2.47;;;;;;;;;;5053823;28;20182;-72
2021/01/23 12:36:34;;;;;;;3.10;2.60;;;;;;;;;;5058459;28;20638;-72
2021/01/23 12:39:38;;;;;;;2.17;1.80;;;;;;;;;;5073101;28;20715;-72
2021/01/23 12:42:43;;;;;;;2.77;2.50;;;;;;;;;;5073382;28;20215;-72
2021/01/23 12:45:47;;;;;;;2.67;2.47;;;;;;;;;;5073881;28;20179;-72
2021/01/23 12:48:51;;;;;;;2.80;2.50;;;;;;;;;;5073508;28;20207;-72
2021/01/23 12:51:55;;;;;;;2.70;2.37;;;;;;;;;;5083867;28;20215;-72
2021/01/23 12:55:00;;;;;;;3.47;2.40;;;;;;;;;;5074025;28;20172;-72
2021/01/23 12:58:04;;;;;;;2.70;2.50;;;;;;;;;;5072769;28;20206;-72
2021/01/23 13:01:08;;;;;;;2.67;2.47;;;;;;;;;;5071950;28;20207;-72
2021/01/23 13:04:13;;;;;;;3.00;2.70;;;;;;;;;;5073136;28;20203;-72
2021/01/23 13:07:17;;;;;;;2.93;2.70;;;;;;;;;;5073186;28;20195;-72
2021/01/23 13:10:22;;;;;;;3.00;2.30;;;;;;;;;;5073172;28;20546;-72
2021/01/23 13:13:26;;;;;;;4.50;2.70;;;;;;;;;;5071934;28;20179;-71
2021/01/23 13:16:31;;;;;;;4.10;2.70;;;;;;;;;;5072677;28;20184;-72
2021/01/23 13:19:35;;;;;;;3.30;2.83;;;;;;;;;;5072757;28;20223;-72
2021/01/23 13:22:40;;;;;;;3.50;3.00;;;;;;;;;;5072068;28;20685;-72
2021/01/23 13:25:47;;;;;;;4.50;2.60;;;;;;;;;;5072904;28;20188;-71
2021/01/23 13:28:51;;;;;;;6.57;3.00;;;;;;;;;;5073020;28;20184;-71
2021/01/23 13:31:55;;;;;;;2.73;2.53;;;;;;;;;;5073276;28;20206;-72
2021/01/23 13:34:59;;;;;;;2.80;2.50;;;;;;;;;;5072014;28;20179;-72
2021/01/23 13:38:03;;;;;;;3.33;3.00;;;;;;;;;;5073119;28;20194;-72
2021/01/23 13:41:08;;;;;;;3.47;2.80;;;;;;;;;;5072109;28;20222;-71
2021/01/23 13:44:12;;;;;;;3.47;3.10;;;;;;;;;;5072842;28;20175;-72
2021/01/23 13:47:17;;;;;;;3.17;2.80;;;;;;;;;;5072419;28;20187;-73
2021/01/23 13:50:21;;;;;;;4.37;3.17;;;;;;;;;;5072686;28;20187;-73
2021/01/23 13:53:25;;;;;;;3.80;2.93;;;;;;;;;;5095408;28;20179;-73
2021/01/23 13:56:31;;;;;;;4.93;3.17;;;;;;;;;;5073151;28;20183;-73
2021/01/23 13:59:35;;;;;;;5.90;3.00;;;;;;;;;;5072527;28;20211;-73
2021/01/23 14:02:39;;;;;;;4.07;3.30;;;;;;;;;;5072494;28;20695;-73
2021/01/23 14:05:44;;;;;;;3.40;3.00;;;;;;;;;;5073835;28;20550;-73
2021/01/23 14:08:48;;;;;;;3.80;3.27;;;;;;;;;;5080905;28;20658;-73
2021/01/23 14:11:53;;;;;;;3.43;3.13;;;;;;;;;;5074970;28;20709;-73
2021/01/23 14:14:57;;;;;;;5.27;4.10;;;;;;;;;;5076658;28;20188;-73
2021/01/23 14:18:02;;;;;;;5.23;3.63;;;;;;;;;;5076486;28;20569;-73
2021/01/23 14:21:06;;;;;;;4.93;3.90;;;;;;;;;;5075641;28;20227;-73
2021/01/23 14:24:11;;;;;;;5.37;4.00;;;;;;;;;;5075022;28;20646;-72
2021/01/23 14:27:15;;;;;;;6.07;4.50;;;;;;;;;;5080660;28;20661;-73
2021/01/23 14:30:19;;;;;;;4.63;3.80;;;;;;;;;;5095213;28;20533;-74
2021/01/23 14:33:23;;;;;;;5.63;4.00;;;;;;;;;;5096101;28;20195;-73
2021/01/23 14:36:27;;;;;;;5.50;4.53;;;;;;;;;;5074801;28;20195;-73
2021/01/23 14:39:36;;;;;;;5.60;4.43;;;;;;;;;;5073024;28;20199;-73
2021/01/23 14:42:40;;;;;;;5.87;4.80;;;;;;;;;;5073941;28;20223;-73
2021/01/23 14:45:44;;;;;;;7.10;4.57;;;;;;;;;;5074860;28;20203;-73
2021/01/23 14:48:49;;;;;;;7.23;5.40;;;;;;;;;;5075518;28;20601;-72
2021/01/23 14:51:55;;;;;;;6.17;4.90;;;;;;;;;;5068312;28;20651;-72
2021/01/23 14:54:59;;;;;;;7.20;5.23;;;;;;;;;;5031813;28;20539;-72
2021/01/23 14:58:04;;;;;;;8.60;5.23;;;;;;;;;;5080552;28;20588;-72
2021/01/23 15:01:08;;;;;;;6.27;4.93;;;;;;;;;;5095360;28;20648;-73
2021/01/23 15:04:12;;;;;;;7.17;5.17;;;;;;;;;;5094492;28;20553;-73
2021/01/23 15:07:18;;;;;;;8.63;5.70;;;;;;;;;;5089105;28;20589;-73
2021/01/23 15:10:23;;;;;;;7.07;5.47;;;;;;;;;;5056530;28;20595;-73
2021/01/23 15:13:29;;;;;;;7.77;5.30;;;;;;;;;;5071659;28;20590;-72
2021/01/23 15:16:33;;;;;;;7.60;5.20;;;;;;;;;;5059514;28;20598;-73
2021/01/23 15:19:38;;;;;;;7.03;5.13;;;;;;;;;;5074280;28;20632;-73
2021/01/23 15:22:41;;;;;;;8.07;5.63;;;;;;;;;;5042780;28;20654;-73
2021/01/23 15:25:45;;;;;;;7.03;5.53;;;;;;;;;;5055264;28;20906;-72
2021/01/23 15:28:50;;;;;;;10.50;6.17;;;;;;;;;;5054014;28;21107;-73
2021/01/23 15:31:54;;;;;;;8.80;5.73;;;;;;;;;;5073736;28;20761;-73
2021/01/23 15:34:59;;;;;;;7.13;5.60;;;;;;;;;;5062893;28;20593;-73
2021/01/23 15:38:03;;;;;;;8.13;5.90;;;;;;;;;;5073703;28;20558;-73
2021/01/23 15:41:07;;;;;;;8.93;5.97;;;;;;;;;;5073983;28;21024;-73
2021/01/23 15:44:11;;;;;;;6.53;5.73;;;;;;;;;;5074803;28;20542;-73
2021/01/23 15:47:16;;;;;;;9.47;6.80;;;;;;;;;;5074357;28;20582;-73
2021/01/23 15:50:20;;;;;;;9.40;6.73;;;;;;;;;;5061757;28;20594;-73
2021/01/23 15:53:24;;;;;;;10.23;6.90;;;;;;;;;;5061441;28;20601;-72
2021/01/23 15:56:29;;;;;;;8.43;6.57;;;;;;;;;;5073383;28;20613;-72
2021/01/23 15:59:33;;;;;;;8.53;6.73;;;;;;;;;;5073439;28;20609;-72
2021/01/23 16:02:38;;;;;;;10.27;7.23;;;;;;;;;;5073433;28;21238;-73
2021/01/23 16:05:47;;;;;;;11.87;7.77;;;;;;;;;;5050323;28;20597;-72
2021/01/23 16:08:51;;;;;;;9.80;7.10;;;;;;;;;;5096284;28;20546;-72
2021/01/23 16:11:55;;;;;;;10.23;6.70;;;;;;;;;;5064173;28;20653;-73
2021/01/23 16:15:00;;;;;;;9.87;7.20;;;;;;;;;;5063918;28;20621;-73
2021/01/23 16:18:06;;;;;;;11.73;7.60;;;;;;;;;;5084393;28;20609;-73
2021/01/23 16:21:10;;;;;;;10.20;7.47;;;;;;;;;;5062393;28;20662;-73
2021/01/23 16:24:14;;;;;;;10.20;7.50;;;;;;;;;;5053567;28;20539;-73
2021/01/23 16:27:19;;;;;;;11.00;7.70;;;;;;;;;;5053322;28;20883;-73
2021/01/23 16:30:24;;;;;;;11.37;8.03;;;;;;;;;;5068047;28;20582;-72
2021/01/23 16:33:28;;;;;;;12.00;8.57;;;;;;;;;;5073209;28;20590;-73
2021/01/23 16:36:33;;;;;;;11.03;7.93;;;;;;;;;;5095893;28;21198;-73
2021/01/23 16:39:37;;;;;;;12.77;8.53;;;;;;;;;;5073026;28;20546;-73
2021/01/23 16:42:46;;;;;;;11.57;8.40;;;;;;;;;;5073211;28;20601;-73
2021/01/23 16:45:51;;;;;;;11.80;8.33;;;;;;;;;;5053528;28;20701;-73
2021/01/23 16:48:57;;;;;;;13.47;8.67;;;;;;;;;;5053487;28;20594;-73
2021/01/23 16:52:01;;;;;;;11.97;9.03;;;;;;;;;;5061338;28;20641;-72
2021/01/23 16:55:08;;;;;;;14.73;9.67;;;;;;;;;;5074046;28;20534;-73
2021/01/23 16:58:12;;;;;;;16.87;9.07;;;;;;;;;;5072976;28;20589;-74
2021/01/23 17:01:16;;;;;;;16.07;10.03;;;;;;;;;;5073679;28;20684;-73
2021/01/23 17:04:21;;;;;;;13.10;9.53;;;;;;;;;;5072605;28;20613;-73
2021/01/23 17:07:25;;;;;;;14.23;10.33;;;;;;;;;;5073077;28;21171;-72
2021/01/23 17:10:29;;;;;;;14.87;9.97;;;;;;;;;;5072736;28;20578;-73
2021/01/23 17:13:33;;;;;;;13.73;9.33;;;;;;;;;;5072185;28;20598;-73
2021/01/23 17:16:37;;;;;;;13.67;9.97;;;;;;;;;;5072367;28;20586;-73
2021/01/23 17:19:43;;;;;;;13.50;9.73;;;;;;;;;;5049025;28;20621;-73
2021/01/23 17:22:49;;;;;;;15.60;9.97;;;;;;;;;;5083204;28;20630;-73
2021/01/23 17:25:53;;;;;;;13.70;9.40;;;;;;;;;;5060864;28;20535;-73
2021/01/23 17:28:57;;;;;;;16.43;10.27;;;;;;;;;;5072024;28;20546;-73
2021/01/23 17:32:01;;;;;;;17.70;10.07;;;;;;;;;;5072848;28;21210;-73
2021/01/23 17:35:06;;;;;;;15.53;9.97;;;;;;;;;;5072699;28;20589;-73
2021/01/23 17:38:10;;;;;;;13.00;9.57;;;;;;;;;;5072437;28;20590;-73
2021/01/23 17:41:15;;;;;;;15.23;9.37;;;;;;;;;;5075476;28;20653;-73
2021/01/23 17:44:19;;;;;;;15.33;10.03;;;;;;;;;;5076360;28;20873;-73
2021/01/23 17:47:23;;;;;;;14.93;9.80;;;;;;;;;;5076889;28;20546;-73
2021/01/23 17:50:28;;;;;;;14.47;9.93;;;;;;;;;;5076572;28;20605;-73
2021/01/23 17:53:32;;;;;;;15.37;9.70;;;;;;;;;;5075595;28;20609;-73
2021/01/23 17:56:36;;;;;;;14.43;9.03;;;;;;;;;;5065988;28;20622;-73
2021/01/23 17:59:45;;;;;;;15.63;9.20;;;;;;;;;;5056272;28;20543;-73
2021/01/23 18:02:49;;;;;;;12.23;8.47;;;;;;;;;;5074265;28;20613;-73
2021/01/23 18:12:14;;;;;;;13.00;8.97;;;;;;;;;;5101386;23;20677;-81
2021/01/23 18:15:18;;;;;;;12.93;8.87;;;;;;;;;;4857001;29;20547;-83
2021/01/23 18:18:22;;;;;;;11.83;8.40;;;;;;;;;;4875465;29;20547;-82
2021/01/23 18:21:26;;;;;;;11.73;8.20;;;;;;;;;;4877579;29;20658;-83
2021/01/23 18:24:30;;;;;;;13.80;9.60;;;;;;;;;;4885942;29;20547;-82
2021/01/23 18:27:35;;;;;;;14.23;9.40;;;;;;;;;;4896098;29;20602;-83
2021/01/23 18:30:39;;;;;;;11.60;8.50;;;;;;;;;;4870616;29;20629;-82
2021/01/23 18:33:43;;;;;;;13.43;8.83;;;;;;;;;;4882886;29;20611;-82